Startpagina
METAR-TAF:

METAR-TAF

Vliegvelden :

Flughafen Düsseldorf

Düsseldorf, Duitsland

breedte: 51-18N, lengte: 006-46E, hoogte: 45 m

Actueel weer

Dit bericht is 10 minuten geleden gemaakt, om 17:50 UTC
Wind 7 kt uit het zuidwesten
Temperatuur 12°C
Vochtigheid 67%
Druk 1030 hPa
Zicht 10 km of meer
geen wolken onder 1500 m en geen cumulonimbus

METAR: EDDL 061750Z AUTO 22007KT CAVOK 12/06 Q1030 NOSIG

Tijdstip: 20:00 (18:00 UTC)

Verwachting

Dit bericht is 1 uur en het 0 minuten geleden gemaakt, om 17:00 UTC
Verwachting geldig van 06 om 18 UTC tot 07 om 24 UTC
Wind 7 kt uit het zuidwesten
Zicht 10 km of meer
geen wolken onder 1500 m en geen cumulonimbus
Wijzigt naar
van 06 om 19 UTC tot 06 om 22 UTC
Wind 8 kt uit het zuidzuidoosten
Wijzigt naar
van 07 om 09 UTC tot 07 om 12 UTC
Wind 11 kt uit het zuidwesten
Wijzigt naar
van 07 om 16 UTC tot 07 om 18 UTC
Wind 6 kt uit het zuiden

TAF: EDDL 061700Z 0618/0724 22007KT CAVOK BECMG 0619/0622 16008KT BECMG 0709/0712 22011KT BECMG 0716/0718 19006KT

Waarnemingen en weersverwachtingen van meer dan 4000 vliegvelden (METAR en TAF).

De beschikbare stations zijn de gele en rode punten op de kaart.

Ga met uw muis naar het station om de naam te zien.

Klik dan om waarnemingen en weersverwachtingen te zien.

kaart wijzigen: klik op de groene knoppen met een zwart kruis om in te zoomen, op de groene knop met een streepje om uit te zoomen of op de groene pijlen voor aangrenzende kaarten.


METAR-TAF: